Time;durP1;ratioP1;P1;durP2;ratioP2;P2;SDS_P1;SDS_P2;PMS_P1;PMS_P2;Temp;Humidity;BMP_temperature;BMP_pressure;BME280_temperature;BME280_humidity;BME280_pressure;Samples;Min_cycle;Max_cycle;Signal;HPM_P1;HPM_P2
2021/09/04 00:00:40;;;;;;;12.60;9.63;;;12.70;99.90;;;;;;5078899;28;20312;-86
2021/09/04 00:03:09;;;;;;;11.98;10.05;;;12.60;99.90;;;;;;5079947;28;20196;-86
2021/09/04 00:05:36;;;;;;;11.68;9.25;;;12.60;99.90;;;;;;5085248;28;20256;-86
2021/09/04 00:08:03;;;;;;;10.15;9.00;;;12.50;99.90;;;;;;5083232;28;20197;-86
2021/09/04 00:10:31;;;;;;;14.63;10.07;;;12.60;99.90;;;;;;5085068;28;20269;-86
2021/09/04 00:13:02;;;;;;;11.52;9.38;;;12.60;99.70;;;;;;5080872;28;20206;-86
2021/09/04 00:15:29;;;;;;;10.52;9.00;;;12.50;99.70;;;;;;5084994;28;20225;-86
2021/09/04 00:18:00;;;;;;;13.27;9.25;;;12.50;99.90;;;;;;5084764;28;20204;-86
2021/09/04 00:20:28;;;;;;;11.43;8.98;;;12.50;99.90;;;;;;5084739;28;20221;-86
2021/09/04 00:22:56;;;;;;;11.57;8.68;;;12.50;99.90;;;;;;5081958;28;20257;-86
2021/09/04 00:25:23;;;;;;;12.07;8.35;;;12.60;99.90;;;;;;5077664;28;20228;-85
2021/09/04 00:27:50;;;;;;;10.18;8.38;;;12.60;99.60;;;;;;5084447;28;20688;-87
2021/09/04 00:30:18;;;;;;;10.85;8.15;;;12.60;99.50;;;;;;5078045;28;20316;-85
2021/09/04 00:32:45;;;;;;;11.05;8.02;;;12.50;99.40;;;;;;5079151;28;20293;-86
2021/09/04 00:35:12;;;;;;;10.45;8.70;;;12.40;99.50;;;;;;5082270;28;20276;-85
2021/09/04 00:37:40;;;;;;;11.60;8.05;;;12.30;99.60;;;;;;5079474;28;20276;-86
2021/09/04 00:40:09;;;;;;;10.93;8.68;;;12.20;99.80;;;;;;5076309;28;20332;-86
2021/09/04 00:42:36;;;;;;;11.18;8.25;;;12.30;99.90;;;;;;5081425;28;20291;-86
2021/09/04 00:45:03;;;;;;;10.98;7.97;;;12.30;99.90;;;;;;5076745;28;20252;-85
2021/09/04 00:47:30;;;;;;;11.77;7.75;;;12.30;99.90;;;;;;5084312;28;20288;-86
2021/09/04 00:49:57;;;;;;;8.88;7.97;;;12.40;99.80;;;;;;5079273;28;20301;-85
2021/09/04 00:52:24;;;;;;;10.35;8.23;;;12.50;99.70;;;;;;5077388;28;20223;-85
2021/09/04 00:54:53;;;;;;;13.25;8.75;;;12.50;99.50;;;;;;5081697;28;20276;-85
2021/09/04 00:57:20;;;;;;;9.43;8.20;;;12.40;99.30;;;;;;5067499;28;20205;-85
2021/09/04 00:59:48;;;;;;;8.77;7.72;;;12.30;99.60;;;;;;5081261;28;20312;-85
2021/09/04 01:02:15;;;;;;;9.18;8.02;;;12.30;99.70;;;;;;5078638;28;20631;-86
2021/09/04 01:04:43;;;;;;;10.88;7.68;;;12.40;99.70;;;;;;5076338;28;20225;-86
2021/09/04 01:07:10;;;;;;;9.55;7.85;;;12.40;99.50;;;;;;5080162;28;20257;-85
2021/09/04 01:09:39;;;;;;;11.50;7.80;;;12.30;99.30;;;;;;5076082;28;20308;-85
2021/09/04 01:12:09;;;;;;;10.20;8.32;;;12.20;99.30;;;;;;5085518;28;20247;-86
2021/09/04 01:14:36;;;;;;;9.20;7.43;;;12.10;99.60;;;;;;5085093;28;20307;-85
2021/09/04 01:17:04;;;;;;;9.32;7.53;;;12.00;99.80;;;;;;5083068;28;20272;-86
2021/09/04 01:19:31;;;;;;;9.25;7.63;;;11.90;99.90;;;;;;5079613;28;20229;-85
2021/09/04 01:21:58;;;;;;;9.40;7.90;;;11.90;99.90;;;;;;5076222;28;20241;-87
2021/09/04 01:24:25;;;;;;;7.95;7.00;;;11.80;99.90;;;;;;5086454;28;20256;-85
2021/09/04 01:26:55;;;;;;;8.85;7.78;;;11.80;99.90;;;;;;5082582;28;20231;-85
2021/09/04 01:29:23;;;;;;;10.13;7.55;;;11.80;99.90;;;;;;5084394;28;20288;-85
2021/09/04 01:31:50;;;;;;;9.23;7.43;;;11.90;99.90;;;;;;5080320;28;20226;-85
2021/09/04 01:34:17;;;;;;;8.68;7.10;;;11.80;99.90;;;;;;5080939;28;20313;-85
2021/09/04 01:36:44;;;;;;;8.80;7.72;;;11.80;99.90;;;;;;5086033;28;20268;-86
2021/09/04 01:39:11;;;;;;;10.02;7.25;;;11.90;99.90;;;;;;5079844;28;20204;-85
2021/09/04 01:41:40;;;;;;;8.07;7.28;;;11.90;99.90;;;;;;5084840;28;20269;-86
2021/09/04 01:44:09;;;;;;;8.32;7.53;;;12.00;99.70;;;;;;5082556;28;20288;-86
2021/09/04 01:46:36;;;;;;;8.27;7.25;;;12.00;99.40;;;;;;5085902;28;20353;-85
2021/09/04 01:49:04;;;;;;;10.52;7.78;;;11.90;99.40;;;;;;5084159;28;20684;-87
2021/09/04 01:51:31;;;;;;;10.00;7.38;;;11.80;99.70;;;;;;5080830;28;20285;-85
2021/09/04 01:53:58;;;;;;;9.32;7.47;;;11.70;99.90;;;;;;5078444;28;20201;-86
2021/09/04 01:56:25;;;;;;;10.23;7.32;;;11.70;99.80;;;;;;5085197;28;20280;-85
2021/09/04 01:58:53;;;;;;;10.65;6.97;;;11.60;99.90;;;;;;5084811;28;20239;-86
2021/09/04 02:01:21;;;;;;;8.45;7.40;;;11.60;99.90;;;;;;5080270;28;20229;-85
2021/09/04 02:03:49;;;;;;;8.18;7.00;;;11.70;99.90;;;;;;5084864;28;20217;-85
2021/09/04 02:06:16;;;;;;;8.93;7.28;;;11.80;99.90;;;;;;5083815;28;20248;-85
2021/09/04 02:08:43;;;;;;;8.90;7.32;;;11.80;99.70;;;;;;5085518;28;20235;-86
2021/09/04 02:11:10;;;;;;;8.15;6.80;;;11.80;99.70;;;;;;5082194;28;20241;-85
2021/09/04 02:13:37;;;;;;;7.60;6.82;;;11.80;99.60;;;;;;5082069;28;20235;-85
2021/09/04 02:16:04;;;;;;;10.27;7.43;;;11.80;99.50;;;;;;5081594;28;20301;-85
2021/09/04 02:18:33;;;;;;;8.15;7.30;;;11.80;99.50;;;;;;5081500;28;20208;-85
2021/09/04 02:21:00;;;;;;;10.57;7.18;;;11.70;99.70;;;;;;5082544;28;20229;-85
2021/09/04 02:23:27;;;;;;;7.93;7.13;;;11.60;99.60;;;;;;5083389;28;20232;-85
2021/09/04 02:25:54;;;;;;;8.60;7.25;;;11.50;99.60;;;;;;5082896;28;20289;-86
2021/09/04 02:28:22;;;;;;;8.18;7.18;;;11.40;99.90;;;;;;5081695;28;20193;-85
2021/09/04 02:30:50;;;;;;;7.88;7.05;;;11.40;99.90;;;;;;5079421;28;20276;-86
2021/09/04 02:33:23;;;;;;;9.23;7.60;;;11.30;99.90;;;;;;5082995;28;20316;-86
2021/09/04 02:35:51;;;;;;;9.52;7.40;;;11.30;99.90;;;;;;5082897;28;20232;-86
2021/09/04 02:38:18;;;;;;;8.07;7.03;;;11.40;99.90;;;;;;5079786;28;20257;-86
2021/09/04 02:40:45;;;;;;;7.45;6.55;;;11.40;99.90;;;;;;5081469;28;20245;-87
2021/09/04 02:43:12;;;;;;;8.52;6.50;;;11.50;99.80;;;;;;5084469;28;20233;-86
2021/09/04 02:45:39;;;;;;;7.88;6.75;;;11.50;99.60;;;;;;5080017;28;20301;-86
2021/09/04 02:48:06;;;;;;;8.75;6.28;;;11.50;99.60;;;;;;5083186;28;20263;-86
2021/09/04 02:50:34;;;;;;;8.40;7.03;;;11.50;99.40;;;;;;5078224;28;20280;-87
2021/09/04 02:53:06;;;;;;;8.02;6.72;;;11.40;99.30;;;;;;5082543;28;20211;-86
2021/09/04 02:55:34;;;;;;;8.02;6.97;;;11.30;99.40;;;;;;5083810;28;20217;-87
2021/09/04 02:58:01;;;;;;;9.30;6.70;;;11.20;99.70;;;;;;5083020;28;20254;-86
2021/09/04 03:00:29;;;;;;;10.25;6.50;;;11.20;99.80;;;;;;5083494;28;20305;-87
2021/09/04 03:02:56;;;;;;;10.90;7.13;;;11.20;99.70;;;;;;5074855;28;20285;-86
2021/09/04 03:05:24;;;;;;;8.13;6.88;;;11.00;99.70;;;;;;5079754;28;20285;-86
2021/09/04 03:07:51;;;;;;;9.13;7.20;;;11.00;99.90;;;;;;5080982;28;20662;-85
2021/09/04 03:10:20;;;;;;;8.38;6.80;;;11.00;99.90;;;;;;5075125;28;20217;-86
2021/09/04 03:12:47;;;;;;;7.78;6.57;;;11.10;99.90;;;;;;5083016;28;20248;-86
2021/09/04 03:15:14;;;;;;;8.00;6.90;;;11.20;99.80;;;;;;5079898;28;20249;-86
2021/09/04 03:17:41;;;;;;;7.25;6.55;;;11.20;99.70;;;;;;5079100;28;20260;-87
2021/09/04 03:20:09;;;;;;;7.97;7.13;;;11.20;99.60;;;;;;5078550;28;20323;-86
2021/09/04 03:22:36;;;;;;;7.50;6.70;;;11.20;99.60;;;;;;5078210;28;20226;-86
2021/09/04 03:25:04;;;;;;;11.35;7.47;;;11.10;99.50;;;;;;5084298;28;20313;-87
2021/09/04 03:27:33;;;;;;;7.93;6.55;;;11.10;99.40;;;;;;5084247;28;20265;-85
2021/09/04 03:30:01;;;;;;;7.63;6.38;;;11.00;99.70;;;;;;5081479;28;20327;-86
2021/09/04 03:32:28;;;;;;;7.75;6.50;;;11.00;99.80;;;;;;5085144;28;20245;-86
2021/09/04 03:34:55;;;;;;;9.05;7.10;;;11.00;99.90;;;;;;5082452;28;20261;-85
2021/09/04 03:37:22;;;;;;;8.38;6.82;;;10.90;99.90;;;;;;5081496;28;20205;-85
2021/09/04 03:39:50;;;;;;;7.80;6.45;;;10.90;99.90;;;;;;5084353;28;20640;-85
2021/09/04 03:42:17;;;;;;;9.15;7.43;;;10.90;99.90;;;;;;5076683;28;20240;-86
2021/09/04 03:44:46;;;;;;;7.72;6.78;;;10.90;99.90;;;;;;5079370;28;20288;-86
2021/09/04 03:47:12;;;;;;;10.80;6.95;;;10.90;99.90;;;;;;5076751;28;20257;-85
2021/09/04 03:49:40;;;;;;;7.68;6.72;;;11.00;99.60;;;;;;5078118;28;20232;-86
2021/09/04 03:52:07;;;;;;;8.23;6.70;;;11.00;99.90;;;;;;5077927;28;20293;-85
2021/09/04 03:54:34;;;;;;;9.20;7.10;;;10.90;99.30;;;;;;5077352;28;20649;-85
2021/09/04 03:57:02;;;;;;;7.97;6.43;;;10.70;99.60;;;;;;5087901;28;20271;-85
2021/09/04 03:59:30;;;;;;;10.88;7.03;;;10.60;99.90;;;;;;5086315;28;20259;-85
2021/09/04 04:01:58;;;;;;;8.57;6.30;;;10.60;99.90;;;;;;5085098;28;20221;-85
2021/09/04 04:04:26;;;;;;;7.28;6.43;;;10.50;99.90;;;;;;5083717;28;20292;-85
2021/09/04 04:06:53;;;;;;;8.80;5.78;;;10.60;99.90;;;;;;5078340;28;20231;-85
2021/09/04 04:09:20;;;;;;;9.25;6.45;;;10.70;99.90;;;;;;5084539;28;20288;-85
2021/09/04 04:11:48;;;;;;;7.82;6.57;;;10.70;99.70;;;;;;5083393;28;20221;-86
2021/09/04 04:14:15;;;;;;;9.02;6.18;;;10.60;99.60;;;;;;5083237;28;20201;-85
2021/09/04 04:16:43;;;;;;;10.00;6.28;;;10.60;99.90;;;;;;5086669;28;20651;-85
2021/09/04 04:19:12;;;;;;;8.70;6.57;;;10.60;99.90;;;;;;5084112;28;20205;-85
2021/09/04 04:21:39;;;;;;;8.45;6.22;;;10.70;99.80;;;;;;5085046;28;20312;-85
2021/09/04 04:24:06;;;;;;;7.65;6.00;;;10.60;99.70;;;;;;5088583;28;20230;-85
2021/09/04 04:26:34;;;;;;;7.88;6.57;;;10.50;99.90;;;;;;5087508;28;20741;-86
2021/09/04 04:29:01;;;;;;;8.02;6.13;;;10.40;99.90;;;;;;5083808;28;20206;-86
2021/09/04 04:31:28;;;;;;;8.52;6.30;;;10.40;99.90;;;;;;5087362;28;20255;-86
2021/09/04 04:33:56;;;;;;;8.95;6.60;;;10.40;99.90;;;;;;5081769;28;20232;-85
2021/09/04 04:36:25;;;;;;;8.25;6.28;;;10.40;99.90;;;;;;5085376;28;20213;-85
2021/09/04 04:38:52;;;;;;;8.63;6.43;;;10.40;99.90;;;;;;5085190;28;20264;-85
2021/09/04 04:41:19;;;;;;;6.82;6.13;;;10.40;99.90;;;;;;5090731;28;20240;-85
2021/09/04 04:43:47;;;;;;;7.13;6.20;;;10.50;99.90;;;;;;5085948;28;20610;-86
2021/09/04 04:46:14;;;;;;;7.32;6.45;;;10.50;99.90;;;;;;5093089;28;20704;-85
2021/09/04 04:48:41;;;;;;;8.23;6.60;;;10.50;99.90;;;;;;5092226;28;20245;-85
2021/09/04 04:51:09;;;;;;;6.82;5.95;;;10.40;99.90;;;;;;5091584;28;20258;-88
2021/09/04 04:53:39;;;;;;;7.55;6.35;;;10.50;99.90;;;;;;5089529;28;20197;-86
2021/09/04 04:56:07;;;;;;;6.82;6.05;;;10.40;99.90;;;;;;5082264;28;20233;-85
2021/09/04 04:58:34;;;;;;;9.15;6.05;;;10.50;99.90;;;;;;5089545;28;20221;-87
2021/09/04 05:01:01;;;;;;;7.00;6.30;;;10.60;99.90;;;;;;5087962;28;20240;-86
2021/09/04 05:03:28;;;;;;;7.28;6.43;;;10.60;99.90;;;;;;5092569;28;20193;-86
2021/09/04 05:05:56;;;;;;;7.43;6.40;;;10.60;99.80;;;;;;5090947;28;20247;-85
2021/09/04 05:08:24;;;;;;;8.30;6.50;;;10.50;99.90;;;;;;5088369;28;20663;-86
2021/09/04 05:10:53;;;;;;;8.13;6.43;;;10.60;99.90;;;;;;5085587;28;20217;-85
2021/09/04 05:13:20;;;;;;;8.30;6.30;;;10.60;99.90;;;;;;5090680;28;20231;-86
2021/09/04 05:15:48;;;;;;;8.60;6.68;;;10.80;99.80;;;;;;5085436;28;20230;-85
2021/09/04 05:18:15;;;;;;;8.20;6.40;;;10.80;99.80;;;;;;5084501;28;20288;-85
2021/09/04 05:20:43;;;;;;;8.25;6.18;;;10.80;99.90;;;;;;5084180;28;20257;-85
2021/09/04 05:23:11;;;;;;;8.48;6.65;;;10.90;99.80;;;;;;5082362;28;20265;-85
2021/09/04 05:25:38;;;;;;;6.90;6.10;;;11.00;99.80;;;;;;5070454;28;20683;-86
2021/09/04 05:28:07;;;;;;;9.48;6.20;;;11.10;99.70;;;;;;5081161;28;20213;-86
2021/09/04 05:30:34;;;;;;;7.45;6.63;;;11.10;99.70;;;;;;5087705;28;20240;-86
2021/09/04 05:33:01;;;;;;;8.07;6.88;;;11.10;99.70;;;;;;5087910;28;20256;-85
2021/09/04 05:35:28;;;;;;;6.97;6.28;;;11.10;99.70;;;;;;5087148;28;20274;-85
2021/09/04 05:37:55;;;;;;;9.43;6.65;;;11.10;99.80;;;;;;5086750;28;20264;-85
2021/09/04 05:40:22;;;;;;;7.75;6.65;;;11.10;99.80;;;;;;5085097;28;20276;-88
2021/09/04 05:42:49;;;;;;;7.00;6.30;;;11.20;99.90;;;;;;5084660;28;20280;-85
2021/09/04 05:45:18;;;;;;;6.80;6.10;;;11.30;99.90;;;;;;5076571;28;20284;-85
2021/09/04 05:47:45;;;;;;;6.85;5.82;;;11.40;99.90;;;;;;5081977;28;20232;-86
2021/09/04 05:50:12;;;;;;;7.40;6.57;;;11.40;99.90;;;;;;5079894;28;20313;-85
2021/09/04 05:52:39;;;;;;;7.53;6.72;;;11.50;99.90;;;;;;5082066;28;20221;-85
2021/09/04 05:55:06;;;;;;;8.55;6.40;;;11.50;99.90;;;;;;5083485;28;20221;-85
2021/09/04 05:57:33;;;;;;;8.38;6.60;;;11.60;99.90;;;;;;5082782;28;20276;-85
2021/09/04 06:00:00;;;;;;;9.27;7.00;;;11.70;99.90;;;;;;5079826;28;20261;-86
2021/09/04 06:02:28;;;;;;;8.95;7.20;;;11.70;99.90;;;;;;5084279;28;20221;-85
2021/09/04 06:04:57;;;;;;;9.68;7.38;;;11.80;99.90;;;;;;5070849;28;20313;-85
2021/09/04 06:07:24;;;;;;;8.13;6.88;;;11.90;99.90;;;;;;5079860;28;20630;-85
2021/09/04 06:09:50;;;;;;;8.32;6.68;;;12.00;99.90;;;;;;5078546;28;20232;-87
2021/09/04 06:12:18;;;;;;;10.05;6.55;;;12.20;99.90;;;;;;5081913;28;20297;-85
2021/09/04 06:14:50;;;;;;;8.07;7.28;;;12.30;99.90;;;;;;5075767;28;20264;-87
2021/09/04 06:17:17;;;;;;;7.93;7.13;;;12.30;99.90;;;;;;5079471;28;20221;-84
2021/09/04 06:19:46;;;;;;;8.90;7.35;;;12.40;99.90;;;;;;5080543;28;20708;-84
2021/09/04 06:22:13;;;;;;;8.38;6.47;;;12.50;99.90;;;;;;5082928;28;20340;-84
2021/09/04 06:24:54;;;;;;;8.23;7.22;;;12.60;99.90;;;;;;5082233;28;20768;-85
2021/09/04 06:27:30;;;;;;;8.93;7.38;;;12.70;99.90;;;;;;5080500;28;20282;-84
2021/09/04 06:35:49;;;;;;;8.70;7.55;;;13.00;99.90;;;;;;5085636;28;20239;-84
2021/09/04 06:38:16;;;;;;;8.88;7.03;;;13.20;99.90;;;;;;5080678;28;20221;-84
2021/09/04 06:40:43;;;;;;;8.10;7.18;;;13.40;99.90;;;;;;5084828;28;20233;-84
2021/09/04 06:43:10;;;;;;;7.55;6.78;;;13.60;99.90;;;;;;5086129;28;20209;-85
2021/09/04 06:45:37;;;;;;;8.90;7.90;;;13.60;99.90;;;;;;5086384;28;20646;-84
2021/09/04 06:48:04;;;;;;;8.38;7.47;;;13.60;99.90;;;;;;5076628;28;20229;-83
2021/09/04 06:50:32;;;;;;;7.97;7.28;;;13.70;99.90;;;;;;5071404;28;20221;-83
2021/09/04 06:53:01;;;;;;;8.98;7.90;;;13.70;99.90;;;;;;5077253;28;20238;-83
2021/09/04 06:55:28;;;;;;;8.25;7.32;;;13.80;99.90;;;;;;5073940;28;20217;-84
2021/09/04 06:57:55;;;;;;;10.73;8.50;;;13.80;99.90;;;;;;5073498;28;20205;-84
2021/09/04 07:00:22;;;;;;;10.05;8.40;;;13.90;99.90;;;;;;5076841;28;20213;-84
2021/09/04 07:02:49;;;;;;;9.65;8.43;;;14.00;99.90;;;;;;5069904;28;20203;-83
2021/09/04 07:05:17;;;;;;;8.80;7.90;;;14.00;99.90;;;;;;5072402;28;20235;-84
2021/09/04 07:07:45;;;;;;;11.48;8.02;;;14.10;99.90;;;;;;5074173;28;20193;-84
2021/09/04 07:10:13;;;;;;;10.13;7.82;;;14.20;99.90;;;;;;5068206;28;20227;-84
2021/09/04 07:12:40;;;;;;;9.90;7.97;;;14.20;99.90;;;;;;5068062;28;20320;-84
2021/09/04 07:15:08;;;;;;;9.85;8.18;;;14.30;99.90;;;;;;5071207;28;20742;-84
2021/09/04 07:17:35;;;;;;;9.40;8.40;;;14.40;99.90;;;;;;5070604;28;20200;-84
2021/09/04 07:20:02;;;;;;;9.07;8.18;;;14.50;99.90;;;;;;5065338;28;20257;-84
2021/09/04 07:22:29;;;;;;;9.82;8.40;;;14.60;99.90;;;;;;5072747;28;20276;-84
2021/09/04 07:24:56;;;;;;;9.18;8.23;;;14.70;99.90;;;;;;5072544;28;20232;-84
2021/09/04 07:27:24;;;;;;;13.35;8.75;;;14.80;99.50;;;;;;5071983;28;20652;-83
2021/09/04 07:29:51;;;;;;;10.05;8.13;;;14.90;99.60;;;;;;5073668;28;20222;-84
2021/09/04 07:32:18;;;;;;;9.60;8.10;;;15.30;99.30;;;;;;5074127;28;20271;-84
2021/09/04 07:34:45;;;;;;;9.57;8.18;;;15.80;98.20;;;;;;5071789;28;20238;-84
2021/09/04 07:37:12;;;;;;;8.20;7.40;;;16.10;97.20;;;;;;5077166;28;20635;-84
2021/09/04 07:39:38;;;;;;;10.35;8.20;;;16.20;96.50;;;;;;5075670;28;20288;-84
2021/09/04 07:42:05;;;;;;;8.57;7.60;;;16.10;95.90;;;;;;5077541;28;20203;-84
2021/09/04 07:44:34;;;;;;;8.82;7.93;;;16.10;96.20;;;;;;5069427;28;20240;-83
2021/09/04 07:47:00;;;;;;;9.60;7.40;;;16.10;96.80;;;;;;5072330;28;20209;-84
2021/09/04 07:49:27;;;;;;;8.70;7.80;;;16.10;96.70;;;;;;5077272;28;20707;-83
2021/09/04 07:51:55;;;;;;;8.50;7.60;;;16.10;96.60;;;;;;5078257;28;20292;-83
2021/09/04 07:54:22;;;;;;;10.98;7.55;;;16.10;96.20;;;;;;5068200;28;20229;-83
2021/09/04 07:56:49;;;;;;;9.05;7.13;;;16.10;96.70;;;;;;5074739;28;20288;-83
2021/09/04 07:59:16;;;;;;;8.73;7.82;;;16.20;96.40;;;;;;5074622;28;20201;-83
2021/09/04 08:01:44;;;;;;;8.80;7.90;;;16.30;96.10;;;;;;5075056;28;20208;-83
2021/09/04 08:04:13;;;;;;;9.23;7.93;;;16.50;95.10;;;;;;5068383;28;20240;-83
2021/09/04 08:06:40;;;;;;;9.65;7.45;;;16.60;94.80;;;;;;5077514;28;20663;-84
2021/09/04 08:09:07;;;;;;;9.50;7.82;;;16.70;95.20;;;;;;5081223;28;20802;-82
2021/09/04 08:11:35;;;;;;;10.15;8.32;;;16.80;96.10;;;;;;5076799;28;20205;-83
2021/09/04 08:14:01;;;;;;;9.63;8.52;;;16.90;96.10;;;;;;5073076;28;20348;-83
2021/09/04 08:16:28;;;;;;;9.85;8.23;;;16.90;94.50;;;;;;5072925;28;20197;-84
2021/09/04 08:18:57;;;;;;;8.75;7.85;;;17.00;93.70;;;;;;5076710;28;20283;-83
2021/09/04 08:21:23;;;;;;;8.10;7.30;;;17.00;93.90;;;;;;5066680;28;20481;-83
2021/09/04 08:23:50;;;;;;;8.90;7.65;;;17.10;94.10;;;;;;5077223;28;20194;-83
2021/09/04 08:26:17;;;;;;;9.25;8.13;;;17.20;95.00;;;;;;5078446;28;20228;-84
2021/09/04 08:28:44;;;;;;;10.20;8.00;;;17.20;95.40;;;;;;5082543;28;21110;-84
2021/09/04 08:31:11;;;;;;;9.85;7.50;;;17.40;92.80;;;;;;5078998;28;20304;-84
2021/09/04 08:33:38;;;;;;;11.93;8.00;;;17.50;92.60;;;;;;5073244;28;20662;-84
2021/09/04 08:36:07;;;;;;;11.15;7.68;;;17.80;91.70;;;;;;5073884;28;20760;-84
2021/09/04 08:38:34;;;;;;;10.07;7.10;;;17.90;92.10;;;;;;5073047;28;20361;-86
2021/09/04 08:41:00;;;;;;;8.18;7.38;;;18.00;92.20;;;;;;5068779;28;20229;-88
2021/09/04 08:43:27;;;;;;;8.27;7.40;;;18.10;89.60;;;;;;5070770;28;20203;-86
2021/09/04 08:46:02;;;;;;;10.65;8.10;;;18.20;88.70;;;;;;5070328;28;20245;-86
2021/09/04 08:48:29;;;;;;;8.73;7.82;;;18.20;86.20;;;;;;5074287;28;20391;-86
2021/09/04 08:50:56;;;;;;;7.95;7.15;;;18.30;87.90;;;;;;5069213;28;20608;-85
2021/09/04 08:53:27;;;;;;;7.65;6.85;;;18.40;86.80;;;;;;5072436;28;20218;-85
2021/09/04 08:55:53;;;;;;;9.05;7.35;;;18.50;87.60;;;;;;5069375;28;20221;-84
2021/09/04 08:58:20;;;;;;;8.00;7.20;;;18.70;88.60;;;;;;5070134;28;20193;-84
2021/09/04 09:00:48;;;;;;;8.15;6.68;;;18.80;87.00;;;;;;5068438;28;20227;-84
2021/09/04 09:03:24;;;;;;;6.68;5.97;;;19.00;84.60;;;;;;5069664;28;20215;-84
2021/09/04 09:05:51;;;;;;;7.20;6.50;;;19.40;78.70;;;;;;5066360;28;20229;-84
2021/09/04 09:08:22;;;;;;;8.63;6.47;;;20.20;76.40;;;;;;5069251;28;20292;-85
2021/09/04 09:10:52;;;;;;;7.03;6.30;;;21.20;63.50;;;;;;5067410;28;20221;-80
2021/09/04 09:13:20;;;;;;;10.73;9.38;;;23.10;51.60;;;;;;5071650;28;20307;-82
2021/09/04 09:15:48;;;;;;;8.75;7.13;;;26.10;36.90;;;;;;5069511;28;20228;-82
2021/09/04 09:18:17;;;;;;;8.10;7.40;;;28.30;28.70;;;;;;5070799;28;20222;-82
2021/09/04 09:20:46;;;;;;;6.80;6.10;;;30.50;21.10;;;;;;5070796;28;20220;-83
2021/09/04 09:23:15;;;;;;;7.00;6.38;;;31.80;18.30;;;;;;5072033;28;20194;-83
2021/09/04 09:25:44;;;;;;;7.53;6.93;;;31.70;17.50;;;;;;5069039;28;20224;-83
2021/09/04 09:28:13;;;;;;;6.93;6.43;;;31.00;17.50;;;;;;5079314;28;20201;-85
2021/09/04 09:30:42;;;;;;;6.93;6.40;;;30.90;18.70;;;;;;5072266;28;20734;-83
2021/09/04 09:33:10;;;;;;;7.20;6.57;;;31.40;17.30;;;;;;5070388;28;20232;-83
2021/09/04 09:35:40;;;;;;;7.07;6.47;;;29.80;19.30;;;;;;5075686;28;20225;-82
2021/09/04 09:38:09;;;;;;;6.95;6.35;;;29.00;23.20;;;;;;5078805;28;20220;-82
2021/09/04 09:40:37;;;;;;;6.25;5.75;;;30.40;19.30;;;;;;5068447;28;20221;-82
2021/09/04 09:43:15;;;;;;;7.00;6.40;;;31.70;17.40;;;;;;5078373;28;20295;-83
2021/09/04 09:45:47;;;;;;;7.00;6.40;;;32.80;17.30;;;;;;5082367;28;20228;-83
2021/09/04 09:48:20;;;;;;;7.45;6.78;;;32.50;16.00;;;;;;5080649;28;20260;-83
2021/09/04 09:50:48;;;;;;;6.88;6.38;;;31.40;17.30;;;;;;5075056;28;20240;-85
2021/09/04 09:53:16;;;;;;;6.57;6.07;;;30.50;17.80;;;;;;5084889;28;20217;-84
2021/09/04 09:55:47;;;;;;;7.68;7.07;;;31.80;17.50;;;;;;5080407;28;20227;-83
2021/09/04 09:58:17;;;;;;;7.72;6.95;;;31.50;17.30;;;;;;5084376;28;20189;-83
2021/09/04 10:00:44;;;;;;;7.18;6.57;;;32.20;17.80;;;;;;5080701;28;20723;-85
2021/09/04 10:03:12;;;;;;;7.32;6.70;;;31.80;17.60;;;;;;5086012;28;20235;-83
2021/09/04 10:05:40;;;;;;;6.97;6.35;;;32.10;17.60;;;;;;5084298;28;20283;-83
2021/09/04 10:08:06;;;;;;;7.68;7.07;;;32.20;17.70;;;;;;5083732;28;20257;-83
2021/09/04 10:10:35;;;;;;;7.18;6.57;;;32.90;16.00;;;;;;5081427;28;20313;-84
2021/09/04 10:13:02;;;;;;;6.97;6.43;;;31.30;16.70;;;;;;5078827;28;20230;-84
2021/09/04 10:15:33;;;;;;;6.68;6.10;;;32.00;17.60;;;;;;5081010;28;20216;-83
2021/09/04 10:18:03;;;;;;;6.75;6.15;;;32.30;17.70;;;;;;5087250;28;20205;-85
2021/09/04 10:20:31;;;;;;;10.38;6.75;;;31.60;17.90;;;;;;5077327;28;20307;-85
2021/09/04 10:23:10;;;;;;;6.70;6.10;;;32.30;17.70;;;;;;5075083;28;20204;-84
2021/09/04 10:25:37;;;;;;;6.72;5.97;;;31.60;17.40;;;;;;5077317;28;20303;-84
2021/09/04 10:28:04;;;;;;;6.78;6.10;;;32.50;17.10;;;;;;5075567;28;20283;-84
2021/09/04 10:30:34;;;;;;;6.50;6.00;;;32.60;14.90;;;;;;5072547;28;20224;-83
2021/09/04 10:33:04;;;;;;;6.93;6.32;;;32.70;17.30;;;;;;5072481;28;20217;-84
2021/09/04 10:35:52;;;;;;;6.22;5.72;;;30.50;18.00;;;;;;5066846;28;20220;-84
2021/09/04 10:38:31;;;;;;;6.97;6.20;;;30.60;18.30;;;;;;5077948;28;20201;-83
2021/09/04 10:41:23;;;;;;;6.50;6.00;;;30.30;19.40;;;;;;5072503;28;20256;-83
2021/09/04 10:43:53;;;;;;;6.82;6.32;;;30.90;18.90;;;;;;5074250;28;20201;-84
2021/09/04 10:46:22;;;;;;;14.80;13.43;;;29.90;17.10;;;;;;5077376;28;20223;-81
2021/09/04 10:49:01;;;;;;;5.93;5.43;;;28.30;20.00;;;;;;5079206;28;20201;-83
2021/09/04 10:51:48;;;;;;;6.55;5.95;;;29.10;19.20;;;;;;5074426;28;20213;-82
2021/09/04 10:54:53;;;;;;;6.55;6.00;;;29.60;19.10;;;;;;5066950;28;20220;-83
2021/09/04 10:57:21;;;;;;;7.82;5.90;;;29.70;20.10;;;;;;5071988;28;20189;-83
2021/09/04 11:00:08;;;;;;;6.47;5.97;;;29.90;19.60;;;;;;5073375;28;20266;-83
2021/09/04 11:02:51;;;;;;;5.72;5.25;;;29.60;18.80;;;;;;5076301;28;20205;-83
2021/09/04 11:05:49;;;;;;;6.30;5.80;;;29.30;18.50;;;;;;5070795;28;20220;-83
2021/09/04 11:08:32;;;;;;;5.93;5.40;;;28.90;20.70;;;;;;5068510;28;20208;-80
2021/09/04 11:11:15;;;;;;;5.45;4.95;;;28.40;20.60;;;;;;5069546;28;20230;-81
2021/09/04 11:13:43;;;;;;;5.50;5.00;;;27.90;23.00;;;;;;5073395;28;20591;-80
2021/09/04 11:16:44;;;;;;;4.95;4.55;;;27.30;23.30;;;;;;5071096;28;20219;-80
2021/09/04 11:19:23;;;;;;;5.60;5.10;;;26.80;25.00;;;;;;5066398;28;20206;-82
2021/09/04 11:21:56;;;;;;;4.85;4.38;;;26.40;24.70;;;;;;5068886;28;20557;-81
2021/09/04 11:24:30;;;;;;;5.30;4.90;;;26.10;23.80;;;;;;5067955;28;20231;-79
2021/09/04 11:27:00;;;;;;;5.60;4.35;;;25.50;26.00;;;;;;5077317;28;20201;-83
2021/09/04 11:29:28;;;;;;;5.30;4.80;;;25.40;25.20;;;;;;5073233;28;20213;-81
2021/09/04 11:32:00;;;;;;;7.22;5.00;;;25.30;26.10;;;;;;5069167;28;20193;-84
2021/09/04 11:34:40;;;;;;;4.47;4.07;;;24.70;26.50;;;;;;5071905;28;20879;-84
2021/09/04 11:37:22;;;;;;;5.25;4.55;;;24.80;25.20;;;;;;5073288;28;20196;-83
2021/09/04 11:39:52;;;;;;;4.65;4.15;;;24.40;25.00;;;;;;5070729;28;20243;-84
2021/09/04 11:42:21;;;;;;;4.22;3.80;;;24.10;28.80;;;;;;5078589;28;20274;-83
2021/09/04 11:44:51;;;;;;;4.78;4.25;;;24.10;27.40;;;;;;5078250;28;20252;-85
2021/09/04 11:47:18;;;;;;;4.53;4.07;;;24.40;24.50;;;;;;5082325;28;20201;-87
2021/09/04 11:49:48;;;;;;;5.40;4.45;;;24.50;25.10;;;;;;5079486;28;20231;-82
2021/09/04 11:52:21;;;;;;;4.72;4.28;;;24.50;25.50;;;;;;5074233;28;20648;-82
2021/09/04 11:54:48;;;;;;;5.20;4.70;;;24.30;27.70;;;;;;5071187;28;20693;-83
2021/09/04 11:57:30;;;;;;;4.75;4.35;;;24.10;26.50;;;;;;5076020;28;20197;-83
2021/09/04 12:00:01;;;;;;;4.65;4.13;;;24.20;28.40;;;;;;5072566;28;20238;-82
2021/09/04 12:02:29;;;;;;;4.75;4.22;;;24.30;25.30;;;;;;5070044;28;20235;-82
2021/09/04 12:05:03;;;;;;;4.35;3.95;;;24.20;26.60;;;;;;5078245;28;20228;-84
2021/09/04 12:07:31;;;;;;;5.40;4.90;;;23.90;26.60;;;;;;5077360;28;20185;-82
2021/09/04 12:09:59;;;;;;;7.63;4.30;;;24.00;27.60;;;;;;5072032;28;20220;-82
2021/09/04 12:12:28;;;;;;;4.40;4.00;;;23.60;29.20;;;;;;5076101;28;20279;-82
2021/09/04 12:14:56;;;;;;;5.50;3.95;;;23.90;27.70;;;;;;5074501;28;20631;-81
2021/09/04 12:17:23;;;;;;;4.30;3.90;;;23.90;28.80;;;;;;5075787;28;20699;-82
2021/09/04 12:20:10;;;;;;;4.53;4.13;;;24.10;24.90;;;;;;5070050;28;20223;-82
2021/09/04 12:22:38;;;;;;;6.90;4.63;;;24.20;25.20;;;;;;5068276;28;20204;-84
2021/09/04 12:25:23;;;;;;;4.72;4.25;;;24.20;27.00;;;;;;5070792;28;20232;-83
2021/09/04 12:27:59;;;;;;;6.72;4.30;;;24.40;26.70;;;;;;5071140;28;20200;-82
2021/09/04 12:30:28;;;;;;;5.32;4.65;;;24.20;26.60;;;;;;5078442;28;20228;-84
2021/09/04 12:33:07;;;;;;;6.85;4.32;;;23.70;27.60;;;;;;5084704;28;20217;-83
2021/09/04 12:35:53;;;;;;;4.18;3.88;;;23.60;28.30;;;;;;5083876;28;20247;-83
2021/09/04 12:38:22;;;;;;;4.65;4.13;;;23.60;27.50;;;;;;5085769;28;20256;-83
2021/09/04 12:41:11;;;;;;;4.60;4.20;;;23.70;26.20;;;;;;5085425;28;20620;-82
2021/09/04 12:43:58;;;;;;;4.57;4.07;;;23.80;26.70;;;;;;5089483;28;20201;-82
2021/09/04 12:46:32;;;;;;;5.03;4.03;;;23.80;26.90;;;;;;5081072;28;20213;-83
2021/09/04 12:49:16;;;;;;;4.43;4.03;;;23.90;27.20;;;;;;5085904;28;20256;-82
2021/09/04 12:51:45;;;;;;;5.15;4.43;;;23.90;26.40;;;;;;5084880;28;20251;-83
2021/09/04 12:54:12;;;;;;;4.95;4.55;;;23.70;27.30;;;;;;5080048;28;20228;-81
2021/09/04 12:56:41;;;;;;;6.25;4.43;;;23.80;27.30;;;;;;5082575;28;20270;-82
2021/09/04 12:59:09;;;;;;;5.00;4.45;;;23.70;29.50;;;;;;5080664;28;20201;-83
2021/09/04 13:01:37;;;;;;;5.68;4.22;;;23.80;28.40;;;;;;5085190;28;20261;-84